Buda, TX

5:01 PM CDT on September 03, 2015 (GMT -0500)
Elm Grove | | Change Station
CLOSE
Current Station
Personal Weather Station
Location: Buda, TX
Elevation: 741 ft
Nearby Weather Stations

Elev 741 ft 30.09 °N, 97.86 °W | Updated 13 seconds ago

Partly Cloudy
Partly Cloudy
91.0 °F
Feels Like 94 °F
N
8.0
Wind Variable Wind from SE
Gusts 15.0 mph

Today
High -- | Low -- °F
--% Chance of Precip.
Yesterday
High -- | Low -- °F
Precip. -- in
7:09 AM 7:51 PM
Waning Gibbous, 66% visible
Pressure 29.86 in
Visibility 10.0 miles
Clouds Mostly Cloudy 5500 ft
Heat Index 94 °F
Dew Point 66 °F
Humidity 44%
Rainfall 0.00 in
Snow Depth Not available.
UV 3 out of 12
Pollen 7.20 out of 12
Air Quality Not available.
Flu Activity Not available.
METAR KHYI 032147Z 12006KT 10SM BKN055 33/19 A2986
Pressure 29.86 in
Visibility 10.0 miles
Clouds Mostly Cloudy 5500 ft
Heat Index 94 °F
Dew Point 66 °F
Humidity 44%
Rainfall 0.00 in
Snow Depth Not available.
UV 3 out of 12
Pollen 7.20 out of 12
Air Quality Not available.
Flu Activity Not available.
METAR KHYI 032147Z 12006KT 10SM BKN055 33/19 A2986

10-Day Weather Forecast

×

Almanac

Astronomy

Sep. 03, 2015 Rise Set
Actual Time
Civil Twilight
Nautical Twilight
Astronomical Twilight
Moon
Length of Visible Light
Length of Day
Tomorrow will be .
, % of the Moon is Illuminated

Today's Extremes

State Highs State Lows

Community

WunderPhotos

Upload Photos

1,852,046 photos uploaded!

WunderBlogs® & News

Nearby

Air Quality

  Air Quality AQ Index Pollutant
Not available.

Snow Depth

Station Depth Elevation

Earthquake Activity

City Distance Mag. Time & Date
Minimum magnitude displayed is 2.5.

Coastal Water Temperatures

Place Temperature

Stations

Nearby Weather Stations

Station Location Temp. Windchill Dew Point Humidity Wind Precip. Elev Updated Type